Terminal Aerodrome Forecast
Issued by NWS

Home | Current Version | Previous Version | Text Only | Print | Product List | Glossary Off
Versions: 1 2 3 4 5 6 7 8 9 10 11 12 13 14 15 16 17 18 19 20 21 22 23 24 25

674
FTUS43 KABR 201723
TAFPIR
TAF
KPIR 201723Z 2018/2118 VRB03KT 2SM BR BKN004
      TEMPO 2018/2022 5SM BR BKN010
     FM202200 VRB03KT 1 1/2SM BR BKN015
     FM210000 VRB03KT 1/2SM FG BKN010
     FM210800 27004KT 1/2SM FG OVC003
     FM211300 30004KT P6SM OVC006
     FM211600 29005KT P6SM OVC008=

USA.gov is the U.S. government's official web portal to all federal, state and local government web resources and services.